createdAt,value
2024-05-09T00:00:06.437Z,2.00
2024-05-09T00:02:39.664Z,2.58
2024-05-09T00:05:07.102Z,2.13
2024-05-09T00:07:40.054Z,2.17
2024-05-09T00:10:11.811Z,2.25
2024-05-09T00:12:50.850Z,2.30
2024-05-09T00:15:22.750Z,2.45
2024-05-09T00:17:56.474Z,2.10
2024-05-09T00:20:37.446Z,2.10
2024-05-09T00:23:12.663Z,2.22
2024-05-09T00:25:47.762Z,2.00
2024-05-09T00:28:19.849Z,1.98
2024-05-09T00:30:50.699Z,2.40
2024-05-09T00:33:23.354Z,2.20
2024-05-09T00:35:57.316Z,2.20
2024-05-09T00:38:24.735Z,2.17
2024-05-09T00:40:55.418Z,2.25
2024-05-09T00:43:23.132Z,2.50
2024-05-09T00:45:54.844Z,2.03
2024-05-09T00:48:23.913Z,2.00
2024-05-09T00:50:58.490Z,2.35
2024-05-09T00:53:28.151Z,2.50
2024-05-09T00:55:59.470Z,2.03
2024-05-09T00:58:31.368Z,2.40
2024-05-09T01:01:02.224Z,2.25
2024-05-09T01:03:32.267Z,2.50
2024-05-09T01:06:04.136Z,2.10
2024-05-09T01:08:34.273Z,2.05
2024-05-09T01:11:01.741Z,2.20
2024-05-09T01:13:33.588Z,2.42
2024-05-09T01:16:04.412Z,2.20
2024-05-09T01:18:34.694Z,2.47
2024-05-09T01:21:14.400Z,1.73
2024-05-09T01:23:46.109Z,2.47
2024-05-09T01:26:13.586Z,2.20
2024-05-09T01:28:44.519Z,1.90
2024-05-09T01:31:16.940Z,2.50
2024-05-09T01:33:49.854Z,2.10
2024-05-09T01:36:19.015Z,2.20
2024-05-09T01:38:51.578Z,2.47
2024-05-09T01:41:24.535Z,2.08
2024-05-09T01:43:52.967Z,1.95
2024-05-09T01:46:24.630Z,2.22
2024-05-09T01:48:55.649Z,1.73
2024-05-09T01:51:31.893Z,1.98
2024-05-09T01:54:04.895Z,2.08
2024-05-09T01:56:33.951Z,2.00
2024-05-09T01:59:14.238Z,1.92
2024-05-09T02:01:56.606Z,2.58
2024-05-09T02:04:28.283Z,2.28
2024-05-09T02:06:55.980Z,2.20
2024-05-09T02:09:26.508Z,2.20
2024-05-09T02:11:56.811Z,2.17
2024-05-09T02:14:26.278Z,2.15
2024-05-09T02:16:53.665Z,2.10
2024-05-09T02:19:24.027Z,2.03
2024-05-09T02:21:54.190Z,2.10
2024-05-09T02:24:24.799Z,2.10
2024-05-09T02:26:52.140Z,2.13
2024-05-09T02:29:22.404Z,2.15
2024-05-09T02:31:55.614Z,2.08
2024-05-09T02:34:27.948Z,1.77
2024-05-09T02:36:57.901Z,1.95
2024-05-09T02:39:29.666Z,2.05
2024-05-09T02:42:04.184Z,1.77
2024-05-09T02:44:32.905Z,1.88
2024-05-09T02:47:00.395Z,1.92
2024-05-09T02:49:30.917Z,2.15
2024-05-09T02:52:01.463Z,2.13
2024-05-09T02:54:32.163Z,2.08
2024-05-09T02:57:01.574Z,2.17
2024-05-09T02:59:35.735Z,2.35
2024-05-09T03:02:06.622Z,1.85
2024-05-09T03:04:37.933Z,1.90
2024-05-09T03:07:14.393Z,1.92
2024-05-09T03:09:49.200Z,2.00
2024-05-09T03:12:22.747Z,2.13
2024-05-09T03:14:53.654Z,2.10
2024-05-09T03:17:23.752Z,2.05
2024-05-09T03:19:54.163Z,1.98
2024-05-09T03:22:26.998Z,1.60
2024-05-09T03:24:54.162Z,2.83
2024-05-09T03:27:23.372Z,1.85
2024-05-09T03:29:50.735Z,2.05
2024-05-09T03:32:17.984Z,2.20
2024-05-09T03:34:48.613Z,1.95
2024-05-09T03:37:18.789Z,1.95
2024-05-09T03:39:55.158Z,2.17
2024-05-09T03:42:25.168Z,2.40
2024-05-09T03:44:53.160Z,2.13
2024-05-09T03:47:27.007Z,1.85
2024-05-09T03:49:57.806Z,1.80
2024-05-09T03:52:31.133Z,1.70
2024-05-09T03:54:59.760Z,1.83
2024-05-09T03:57:27.058Z,1.80
2024-05-09T04:00:01.260Z,2.20
2024-05-09T04:02:31.531Z,2.40
2024-05-09T04:05:02.223Z,2.00
2024-05-09T04:07:29.493Z,2.22
2024-05-09T04:10:00.421Z,2.20
2024-05-09T04:12:30.734Z,2.30
2024-05-09T04:15:03.446Z,2.03
2024-05-09T04:17:37.399Z,1.98
2024-05-09T04:20:15.169Z,2.13
2024-05-09T04:22:45.799Z,2.15
2024-05-09T04:25:15.980Z,2.83
2024-05-09T04:27:45.850Z,2.88
2024-05-09T04:30:25.366Z,2.40
2024-05-09T04:33:01.414Z,2.38
2024-05-09T04:35:32.230Z,2.47
2024-05-09T04:38:06.617Z,2.67
2024-05-09T04:40:36.743Z,2.45
2024-05-09T04:43:07.578Z,2.50
2024-05-09T04:45:36.022Z,2.55
2024-05-09T04:48:03.629Z,2.60
2024-05-09T04:50:38.268Z,2.85
2024-05-09T04:53:08.820Z,2.90
2024-05-09T04:55:38.484Z,3.10
2024-05-09T04:58:11.311Z,2.78
2024-05-09T05:00:43.927Z,2.38
2024-05-09T05:03:17.347Z,2.67
2024-05-09T05:05:47.887Z,2.83
2024-05-09T05:08:19.641Z,2.50
2024-05-09T05:10:49.780Z,2.83
2024-05-09T05:13:21.807Z,2.78
2024-05-09T05:15:50.877Z,2.65
2024-05-09T05:18:27.967Z,3.10
2024-05-09T05:20:56.574Z,2.92
2024-05-09T05:23:30.278Z,2.88
2024-05-09T05:25:57.756Z,2.88
2024-05-09T05:28:28.362Z,3.15
2024-05-09T05:31:03.838Z,3.03
2024-05-09T05:33:37.227Z,3.38
2024-05-09T05:36:08.161Z,2.90
2024-05-09T05:38:40.686Z,3.33
2024-05-09T05:41:17.050Z,3.05
2024-05-09T05:43:49.146Z,2.90
2024-05-09T05:46:22.408Z,3.17
2024-05-09T05:48:55.312Z,3.17
2024-05-09T05:51:24.924Z,2.70
2024-05-09T05:53:59.646Z,2.97
2024-05-09T05:56:27.713Z,3.60
2024-05-09T05:58:55.408Z,3.22
2024-05-09T06:01:22.541Z,3.05
2024-05-09T06:03:53.143Z,2.90
2024-05-09T06:06:23.564Z,3.30
2024-05-09T06:08:53.298Z,3.20
2024-05-09T06:11:20.767Z,3.30
2024-05-09T06:13:50.852Z,3.03
2024-05-09T06:16:21.333Z,2.80
2024-05-09T06:18:54.957Z,2.53
2024-05-09T06:21:25.540Z,3.22
2024-05-09T06:23:58.220Z,3.20
2024-05-09T06:26:28.686Z,3.08
2024-05-09T06:29:01.884Z,2.85
2024-05-09T06:31:35.523Z,3.03
2024-05-09T06:34:07.956Z,3.45
2024-05-09T06:36:38.350Z,3.15
2024-05-09T06:39:13.367Z,3.13
2024-05-09T06:41:42.412Z,3.13
2024-05-09T06:44:16.752Z,2.97
2024-05-09T06:46:55.692Z,3.35
2024-05-09T06:49:33.944Z,3.17
2024-05-09T06:52:04.523Z,2.58
2024-05-09T06:54:38.520Z,3.08
2024-05-09T06:57:09.095Z,2.63
2024-05-09T06:59:46.517Z,3.30
2024-05-09T07:02:16.960Z,3.03
2024-05-09T07:04:46.104Z,2.63
2024-05-09T07:07:19.923Z,2.90
2024-05-09T07:09:49.859Z,3.05
2024-05-09T07:12:19.390Z,2.85
2024-05-09T07:14:46.819Z,3.70
2024-05-09T07:17:17.984Z,3.17
2024-05-09T07:19:47.162Z,2.78
2024-05-09T07:22:23.894Z,3.47
2024-05-09T07:24:56.156Z,2.70
2024-05-09T07:27:28.244Z,2.72
2024-05-09T07:29:58.609Z,3.20
2024-05-09T07:32:29.234Z,3.03
2024-05-09T07:35:02.232Z,2.35
2024-05-09T07:37:42.619Z,3.05
2024-05-09T07:40:24.504Z,3.00
2024-05-09T07:43:02.566Z,3.53
2024-05-09T07:52:23.770Z,3.15
2024-05-09T07:56:00.527Z,3.08
2024-05-09T07:58:33.585Z,2.55
2024-05-09T08:01:06.997Z,1.95
2024-05-09T08:03:37.684Z,2.85
2024-05-09T08:06:05.762Z,3.10
2024-05-09T08:08:36.842Z,2.72
2024-05-09T08:11:05.932Z,2.45
2024-05-09T08:13:36.023Z,2.50
2024-05-09T08:16:06.209Z,2.83
2024-05-09T08:18:40.351Z,2.35
2024-05-09T08:21:11.112Z,2.58
2024-05-09T08:23:42.974Z,2.20
2024-05-09T08:26:15.863Z,1.98
2024-05-09T08:28:47.291Z,2.47
2024-05-09T08:31:20.313Z,1.92
2024-05-09T08:33:57.741Z,2.28
2024-05-09T08:36:33.945Z,2.25
2024-05-09T08:39:04.276Z,2.10
2024-05-09T08:41:36.256Z,2.10
2024-05-09T08:44:10.034Z,1.95
2024-05-09T08:46:40.906Z,1.77
2024-05-09T08:49:19.257Z,2.13
2024-05-09T08:51:51.941Z,1.95
2024-05-09T08:54:24.444Z,2.25
2024-05-09T08:56:58.632Z,2.25
2024-05-09T08:59:38.339Z,1.52
2024-05-09T09:02:06.878Z,1.67
2024-05-09T09:04:41.010Z,1.67
2024-05-09T09:07:10.994Z,1.83
2024-05-09T09:09:44.347Z,0.80
2024-05-09T09:12:19.690Z,1.60
2024-05-09T09:14:49.551Z,1.50
2024-05-09T09:17:21.441Z,1.90
2024-05-09T09:19:54.751Z,1.45
2024-05-09T09:22:26.113Z,1.60
2024-05-09T09:25:00.572Z,1.58
2024-05-09T09:27:30.904Z,1.30
2024-05-09T09:30:01.029Z,1.58
2024-05-09T09:32:37.858Z,1.48
2024-05-09T09:35:10.598Z,1.50
2024-05-09T09:37:44.169Z,1.73
2024-05-09T09:40:15.428Z,1.60
2024-05-09T09:42:55.302Z,1.25
2024-05-09T09:45:27.986Z,1.33
2024-05-09T09:48:03.045Z,1.33
2024-05-09T09:50:36.186Z,1.50
2024-05-09T09:53:10.706Z,1.15
2024-05-09T09:55:48.243Z,1.38
2024-05-09T10:01:01.421Z,1.30
2024-05-09T10:03:36.992Z,1.25
2024-05-09T10:06:08.003Z,1.30
2024-05-09T10:08:41.558Z,1.75
2024-05-09T10:11:22.808Z,1.40
2024-05-09T10:14:01.505Z,1.55
2024-05-09T10:16:40.545Z,1.30
2024-05-09T10:19:13.449Z,1.33
2024-05-09T10:21:47.046Z,1.50
2024-05-09T10:24:24.978Z,1.35
2024-05-09T10:29:39.666Z,1.40
2024-05-09T10:32:12.225Z,1.65
2024-05-09T10:34:47.875Z,1.30
2024-05-09T10:37:19.368Z,1.48
2024-05-09T10:39:53.088Z,1.25
2024-05-09T10:42:25.023Z,1.30
2024-05-09T10:44:57.630Z,1.42
2024-05-09T10:47:33.601Z,1.67
2024-05-09T10:50:01.298Z,1.23
2024-05-09T10:52:28.654Z,1.58
2024-05-09T10:55:05.427Z,1.00
2024-05-09T10:57:39.344Z,1.45
2024-05-09T11:00:27.512Z,1.40
2024-05-09T11:03:02.847Z,1.42
2024-05-09T11:08:35.371Z,1.55
2024-05-09T11:11:12.121Z,1.25
2024-05-09T11:16:37.622Z,1.40
2024-05-09T11:19:12.223Z,1.48
2024-05-09T11:21:46.073Z,1.55
2024-05-09T11:24:17.925Z,1.20
2024-05-09T11:26:51.612Z,1.30
2024-05-09T11:29:19.655Z,1.27
2024-05-09T11:31:56.026Z,1.38
2024-05-09T11:34:23.259Z,1.40
2024-05-09T11:36:56.043Z,1.80
2024-05-09T11:39:25.790Z,1.30
2024-05-09T11:41:56.684Z,0.30
2024-05-09T11:44:26.216Z,1.02
2024-05-09T11:47:01.384Z,1.30
2024-05-09T11:49:29.775Z,1.30
2024-05-09T11:52:00.977Z,1.90
2024-05-09T11:54:31.959Z,1.48
2024-05-09T11:56:59.602Z,1.20
2024-05-09T11:59:34.229Z,1.20
2024-05-09T12:02:04.341Z,1.65
2024-05-09T12:04:35.183Z,1.30
2024-05-09T12:07:07.893Z,1.30
2024-05-09T12:09:42.317Z,1.27
2024-05-09T12:12:14.748Z,1.45
2024-05-09T12:14:47.488Z,1.35
2024-05-09T12:17:14.832Z,1.42
2024-05-09T12:19:42.296Z,1.40
2024-05-09T12:22:12.376Z,1.23
2024-05-09T12:24:41.787Z,1.30
2024-05-09T12:27:16.908Z,1.10
2024-05-09T12:29:52.097Z,0.90
2024-05-09T12:32:26.456Z,1.20
2024-05-09T12:34:58.680Z,1.60
2024-05-09T12:37:32.175Z,1.15
2024-05-09T12:40:08.823Z,1.05
2024-05-09T12:42:51.712Z,1.30
2024-05-09T12:45:21.604Z,1.30
2024-05-09T12:47:57.824Z,1.30
2024-05-09T12:50:33.378Z,1.40
2024-05-09T12:53:03.881Z,1.30
2024-05-09T12:55:44.032Z,1.23
2024-05-09T12:58:20.339Z,1.40
2024-05-09T13:00:51.019Z,1.70
2024-05-09T13:03:21.891Z,1.30
2024-05-09T13:05:50.548Z,1.42
2024-05-09T13:08:17.884Z,0.90
2024-05-09T13:10:48.934Z,1.30
2024-05-09T13:13:16.695Z,1.63
2024-05-09T13:15:44.622Z,1.30
2024-05-09T13:18:16.719Z,1.10
2024-05-09T13:20:51.504Z,1.48
2024-05-09T13:23:28.002Z,1.30
2024-05-09T13:25:55.604Z,1.65
2024-05-09T13:28:23.898Z,1.20
2024-05-09T13:30:51.227Z,1.23
2024-05-09T13:33:24.416Z,1.30
2024-05-09T13:35:57.641Z,1.30
2024-05-09T13:38:32.630Z,1.20
2024-05-09T13:41:05.219Z,1.10
2024-05-09T13:43:32.655Z,1.35
2024-05-09T13:46:12.038Z,1.20
2024-05-09T13:48:44.184Z,1.50
2024-05-09T13:51:17.258Z,1.30
2024-05-09T13:53:47.478Z,1.30
2024-05-09T13:56:23.178Z,1.45
2024-05-09T13:58:56.251Z,1.38
2024-05-09T14:01:26.631Z,1.38
2024-05-09T14:03:54.410Z,1.17
2024-05-09T14:06:21.943Z,1.38
2024-05-09T14:08:51.076Z,1.10
2024-05-09T14:11:22.427Z,1.23
2024-05-09T14:13:53.558Z,1.40
2024-05-09T14:16:21.105Z,1.35
2024-05-09T14:18:53.765Z,1.00
2024-05-09T14:21:25.806Z,1.30
2024-05-09T14:23:55.661Z,1.55
2024-05-09T14:26:26.726Z,1.30
2024-05-09T14:28:57.649Z,1.40
2024-05-09T14:31:28.053Z,1.55
2024-05-09T14:33:55.670Z,1.55
2024-05-09T14:36:23.207Z,1.40
2024-05-09T14:38:56.073Z,1.48
2024-05-09T14:41:30.172Z,1.30
2024-05-09T14:44:01.693Z,1.30
2024-05-09T14:46:32.065Z,1.50
2024-05-09T14:51:42.379Z,1.40
2024-05-09T14:54:18.198Z,1.40
2024-05-09T14:56:48.130Z,1.35
2024-05-09T14:59:24.831Z,0.80
2024-05-09T15:01:56.298Z,1.70
2024-05-09T15:04:27.096Z,1.48
2024-05-09T15:07:00.149Z,1.30
2024-05-09T15:09:29.536Z,1.33
2024-05-09T15:12:00.881Z,0.80
2024-05-09T15:14:40.483Z,1.40
2024-05-09T15:17:11.025Z,1.48
2024-05-09T15:19:42.323Z,1.23
2024-05-09T15:22:15.119Z,1.25
2024-05-09T15:24:45.684Z,1.33
2024-05-09T15:27:18.279Z,1.33
2024-05-09T15:29:48.191Z,1.40
2024-05-09T15:32:18.606Z,2.42
2024-05-09T15:34:54.973Z,1.33
2024-05-09T15:37:22.564Z,1.65
2024-05-09T15:39:52.904Z,1.77
2024-05-09T15:42:23.242Z,1.45
2024-05-09T15:44:54.657Z,1.33
2024-05-09T15:47:27.450Z,1.50
2024-05-09T15:50:02.820Z,2.00
2024-05-09T15:52:38.301Z,1.25
2024-05-09T15:55:08.618Z,1.65
2024-05-09T15:57:38.855Z,1.48
2024-05-09T16:00:12.191Z,1.60
2024-05-09T16:02:51.197Z,1.20
2024-05-09T16:05:21.662Z,1.35
2024-05-09T16:07:52.770Z,1.60
2024-05-09T16:10:32.805Z,1.60
2024-05-09T16:13:04.993Z,1.45
2024-05-09T16:15:32.296Z,1.40
2024-05-09T16:18:06.376Z,1.25
2024-05-09T16:20:41.594Z,1.60
2024-05-09T16:23:18.811Z,1.35
2024-05-09T16:25:52.713Z,1.50
2024-05-09T16:28:26.270Z,1.52
2024-05-09T16:31:03.624Z,1.60
2024-05-09T16:33:37.467Z,1.77
2024-05-09T16:36:12.019Z,1.73
2024-05-09T16:38:47.833Z,1.45
2024-05-09T16:41:18.895Z,1.50
2024-05-09T16:43:46.730Z,1.55
2024-05-09T16:46:20.739Z,1.50
2024-05-09T16:48:51.568Z,1.63
2024-05-09T16:51:21.816Z,1.55
2024-05-09T16:53:55.685Z,1.63
2024-05-09T16:56:31.025Z,1.75
2024-05-09T16:59:04.098Z,1.60
2024-05-09T17:01:33.718Z,1.58
2024-05-09T17:04:09.706Z,1.80
2024-05-09T17:06:39.085Z,1.52
2024-05-09T17:09:11.598Z,1.80
2024-05-09T17:11:41.842Z,1.80
2024-05-09T17:14:15.264Z,1.85
2024-05-09T17:16:45.234Z,1.63
2024-05-09T17:19:15.163Z,1.65
2024-05-09T17:21:42.571Z,2.00
2024-05-09T17:24:17.938Z,1.50
2024-05-09T17:26:51.447Z,1.88
2024-05-09T17:29:25.884Z,1.77
2024-05-09T17:31:55.675Z,1.50
2024-05-09T17:34:33.584Z,1.70
2024-05-09T17:37:05.637Z,1.63
2024-05-09T17:39:35.444Z,1.77
2024-05-09T17:42:06.515Z,1.63
2024-05-09T17:44:39.614Z,2.00
2024-05-09T17:47:07.094Z,1.55
2024-05-09T17:49:39.456Z,1.67
2024-05-09T17:52:09.768Z,1.70
2024-05-09T17:54:42.596Z,1.85
2024-05-09T17:57:10.201Z,1.55
2024-05-09T17:59:37.357Z,1.77
2024-05-09T18:02:04.898Z,1.70
2024-05-09T18:04:38.080Z,1.67
2024-05-09T18:07:08.403Z,1.80
2024-05-09T18:09:38.893Z,1.70
2024-05-09T18:12:06.669Z,1.52
2024-05-09T18:14:41.788Z,1.55
2024-05-09T18:17:13.849Z,1.35
2024-05-09T18:19:48.564Z,1.80
2024-05-09T18:22:18.825Z,1.80
2024-05-09T18:24:52.982Z,1.58
2024-05-09T18:27:24.351Z,1.50
2024-05-09T18:29:57.853Z,1.80
2024-05-09T18:32:33.474Z,1.52
2024-05-09T18:35:07.555Z,1.90
2024-05-09T18:37:34.655Z,1.58
2024-05-09T18:40:05.770Z,1.77
2024-05-09T18:42:33.098Z,1.63
2024-05-09T18:45:04.313Z,1.80
2024-05-09T18:47:41.367Z,1.70
2024-05-09T18:50:20.904Z,1.70
2024-05-09T18:52:59.722Z,1.42
2024-05-09T18:55:27.821Z,1.67
2024-05-09T18:57:59.566Z,1.88
2024-05-09T19:00:37.511Z,1.50
2024-05-09T19:03:14.206Z,1.73
2024-05-09T19:05:47.183Z,1.92
2024-05-09T19:08:16.983Z,1.35
2024-05-09T19:10:50.713Z,1.77
2024-05-09T19:13:23.700Z,1.70
2024-05-09T19:15:53.828Z,1.50
2024-05-09T19:18:26.682Z,1.70
2024-05-09T19:21:02.482Z,1.80
2024-05-09T19:23:44.242Z,1.73
2024-05-09T19:26:23.354Z,1.58
2024-05-09T19:28:59.524Z,1.48
2024-05-09T19:31:26.888Z,1.50
2024-05-09T19:33:59.558Z,1.55
2024-05-09T19:36:27.421Z,1.70
2024-05-09T19:39:00.290Z,1.58
2024-05-09T19:41:30.577Z,1.80
2024-05-09T19:44:04.329Z,1.90
2024-05-09T19:46:34.820Z,1.90
2024-05-09T19:49:08.084Z,1.90
2024-05-09T19:51:41.599Z,1.67
2024-05-09T19:54:08.722Z,1.63
2024-05-09T19:56:45.081Z,2.00
2024-05-09T19:59:13.276Z,2.05
2024-05-09T20:01:48.880Z,1.95
2024-05-09T20:04:20.927Z,1.67
2024-05-09T20:06:50.066Z,2.00
2024-05-09T20:09:20.199Z,1.95
2024-05-09T20:11:51.394Z,1.80
2024-05-09T20:14:18.862Z,1.83
2024-05-09T20:16:49.385Z,1.80
2024-05-09T20:19:16.711Z,1.70
2024-05-09T20:21:44.936Z,1.70
2024-05-09T20:24:18.293Z,1.90
2024-05-09T20:26:51.936Z,1.88
2024-05-09T20:29:24.915Z,1.67
2024-05-09T20:31:59.561Z,1.73
2024-05-09T20:34:31.377Z,1.95
2024-05-09T20:36:58.879Z,1.75
2024-05-09T20:39:28.576Z,1.98
2024-05-09T20:41:58.372Z,2.03
2024-05-09T20:44:31.750Z,1.83
2024-05-09T20:47:04.799Z,1.90
2024-05-09T20:49:34.708Z,1.85
2024-05-09T20:52:05.355Z,2.13
2024-05-09T20:54:33.001Z,2.30
2024-05-09T20:57:02.725Z,2.15
2024-05-09T20:59:32.937Z,2.25
2024-05-09T21:02:03.034Z,2.10
2024-05-09T21:04:37.138Z,2.03
2024-05-09T21:07:06.859Z,1.80
2024-05-09T21:09:37.416Z,2.08
2024-05-09T21:12:09.518Z,2.10
2024-05-09T21:14:40.527Z,2.17
2024-05-09T21:17:14.017Z,1.80
2024-05-09T21:19:44.194Z,2.10
2024-05-09T21:22:18.615Z,1.77
2024-05-09T21:24:49.491Z,2.17
2024-05-09T21:27:25.002Z,2.17
2024-05-09T21:29:55.591Z,1.85
2024-05-09T21:32:26.294Z,1.98
2024-05-09T21:34:56.355Z,2.05
2024-05-09T21:37:28.064Z,2.25
2024-05-09T21:39:56.631Z,2.20
2024-05-09T21:42:32.517Z,2.05
2024-05-09T21:45:03.733Z,1.65
2024-05-09T21:47:37.118Z,2.13
2024-05-09T21:50:12.431Z,1.90
2024-05-09T21:52:44.164Z,2.08
2024-05-09T21:55:14.332Z,2.03
2024-05-09T21:57:41.714Z,1.90
2024-05-09T22:00:28.484Z,1.90
2024-05-09T22:03:10.662Z,2.20
2024-05-09T22:05:45.141Z,2.33
2024-05-09T22:08:13.140Z,2.03
2024-05-09T22:10:51.428Z,2.40
2024-05-09T22:13:25.006Z,2.03
2024-05-09T22:15:54.979Z,2.00
2024-05-09T22:18:29.373Z,1.92
2024-05-09T22:20:59.419Z,2.05
2024-05-09T22:23:29.682Z,2.10
2024-05-09T22:25:56.847Z,2.10
2024-05-09T22:28:38.806Z,1.75
2024-05-09T22:31:08.919Z,2.50
2024-05-09T22:33:41.931Z,2.10
2024-05-09T22:36:14.339Z,1.90
2024-05-09T22:38:44.723Z,1.98
2024-05-09T22:41:17.912Z,2.13
2024-05-09T22:43:49.984Z,1.65
2024-05-09T22:46:21.386Z,1.52
2024-05-09T22:48:56.765Z,1.55
2024-05-09T22:51:24.457Z,2.10
2024-05-09T22:53:59.821Z,2.00
2024-05-09T22:56:30.403Z,2.30
2024-05-09T22:58:59.090Z,2.08
2024-05-09T23:01:32.326Z,2.10
2024-05-09T23:04:02.777Z,1.80
2024-05-09T23:06:31.446Z,1.70
2024-05-09T23:09:01.826Z,1.60
2024-05-09T23:11:32.506Z,2.20
2024-05-09T23:14:04.793Z,1.92
2024-05-09T23:16:35.390Z,2.22
2024-05-09T23:19:13.357Z,1.83
2024-05-09T23:21:43.656Z,1.80
2024-05-09T23:24:11.868Z,2.00
2024-05-09T23:26:43.666Z,1.77
2024-05-09T23:29:14.871Z,1.90
2024-05-09T23:31:47.784Z,1.90
2024-05-09T23:34:17.950Z,1.92
2024-05-09T23:36:48.839Z,1.98
2024-05-09T23:39:18.963Z,1.88
2024-05-09T23:41:52.479Z,2.30
2024-05-09T23:44:28.502Z,1.67
2024-05-09T23:47:01.156Z,1.98
2024-05-09T23:49:32.081Z,2.40
2024-05-09T23:51:59.785Z,1.98
2024-05-09T23:54:30.281Z,1.90
2024-05-09T23:56:57.506Z,2.47
2024-05-09T23:59:27.826Z,1.80
